Muir Beach, CA

11:29 PM PDT on August 20, 2014 (GMT -0700)
North Sausalito (Spring St) | Change Station
CLOSE
Current Station
Personal Weather Station
Location: Sausalito, CA
Elevation: 158 ft
Nearby Weather Stations

Elev 158 ft 37.86 °N, 122.50 °W | Updated 36 seconds ago

Partly Cloudy
Partly Cloudy
59.4 °F
Feels Like 59.4 °F
N
0.0
Wind Variable Wind from East
Gusts 9.6 mph

Today
High -- | Low -- °F
--% Chance of Precip.
Yesterday
High -- | Low -- °F
Precip. -- in
6:29 AM 7:56 PM
Waning Crescent, 16% visible
Pressure 29.91 in
Visibility 10.0 miles
Clouds Few 900 ft
Dew Point 59 °F
Humidity 100%
Rainfall 0.00 in
Snow Depth Not available.
UV 0.0 out of 12
Pollen 4.90 out of 12
Air Quality Not available.
Flu Activity Not available.
METAR KSFO 210556Z 31004KT 10SM FEW009 17/14 A2991 RMK AO2 SLP127 T01720139 10222 20172 50008 $

More Conditions Fewer Conditions

Pressure 29.91 in
Visibility 10.0 miles
Clouds Few 900 ft
Dew Point 59 °F
Humidity 100%
Rainfall 0.00 in
Snow Depth Not available.
UV 0.0 out of 12
Pollen 4.90 out of 12
Air Quality Not available.
Flu Activity Not available.
METAR KSFO 210556Z 31004KT 10SM FEW009 17/14 A2991 RMK AO2 SLP127 T01720139 10222 20172 50008 $

More Conditions Fewer Conditions

10-Day Weather Forecast

Almanac

Astronomy

Aug. 20, 2014 Rise Set
Actual Time 6:29 AM PDT 7:56 PM PDT
Civil Twilight 6:02 AM PDT 8:23 PM PDT
Nautical Twilight 5:29 AM PDT 8:56 PM PDT
Astronomical Twilight 4:54 AM PDT 9:31 PM PDT
Moon 2:16 AM PDT (8/20) 4:43 PM PDT (8/20)
Length of Visible Light 14h 21m
Length of Day
13h 26m
Tomorrow will be 2m 13s shorter.
Waning Crescent, 16% of the Moon is Illuminated
Aug 21
Waning Crescent
Aug 25
New
Sep 2
First Quarter
Sep 8
Full
Sep 15
Last Quarter

Community

WunderPhotos

Upload Photos

1,745,858 photos uploaded!

Nearby

Snow Depth

Station Depth Elevation
Echo Peak 1 in 7800 ft
Blue Lakes 0 in 8000 ft
Forestdale Creek 0 in 8029 ft
Fallen Leaf 0 in 6300 ft
Ebbetts Pass 0 in 8700 ft

Earthquake Activity

City Distance Mag. Time & Date
King City, California 141 miles 2.7 10:26 PM PDT
2014-08-15
King City, California 141 miles 2.9 8:01 PM PDT
2014-08-14
Minimum magnitude displayed is 2.5.

Coastal Water Temperatures

Place Temperature
San Francisco, CA 64.0 °F
Richmond, CA 66.0 °F
Port Chicago, CA 69.1 °F

Nearby Weather Stations